createdAt,value
2023-04-04T00:00:19.093Z,1.60
2023-04-04T00:02:46.493Z,1.60
2023-04-04T00:05:13.904Z,1.60
2023-04-04T00:07:40.779Z,1.60
2023-04-04T00:10:08.127Z,1.60
2023-04-04T00:12:35.873Z,1.50
2023-04-04T00:15:04.361Z,1.50
2023-04-04T00:17:31.209Z,1.50
2023-04-04T00:19:57.940Z,1.50
2023-04-04T00:22:24.979Z,1.50
2023-04-04T00:24:51.807Z,1.40
2023-04-04T00:27:18.659Z,1.40
2023-04-04T00:29:45.692Z,1.40
2023-04-04T00:32:13.134Z,1.30
2023-04-04T00:34:40.068Z,1.30
2023-04-04T00:37:07.480Z,1.30
2023-04-04T00:39:34.504Z,1.30
2023-04-04T00:42:01.895Z,1.20
2023-04-04T00:44:31.494Z,1.20
2023-04-04T00:46:58.455Z,1.20
2023-04-04T00:49:25.339Z,1.10
2023-04-04T00:51:52.717Z,1.10
2023-04-04T00:54:19.703Z,1.10
2023-04-04T00:56:47.292Z,1.10
2023-04-04T00:59:16.096Z,1.10
2023-04-04T01:01:43.062Z,1.10
2023-04-04T01:04:10.075Z,1.10
2023-04-04T01:06:36.961Z,1.10
2023-04-04T01:09:03.923Z,1.10
2023-04-04T01:11:31.558Z,1.10
2023-04-04T01:13:58.474Z,1.00
2023-04-04T01:16:25.626Z,1.00
2023-04-04T01:18:54.781Z,1.00
2023-04-04T01:21:23.057Z,1.00
2023-04-04T01:23:50.535Z,1.00
2023-04-04T01:26:18.317Z,1.00
2023-04-04T01:28:45.414Z,1.00
2023-04-04T01:31:18.944Z,1.00
2023-04-04T01:33:55.033Z,1.00
2023-04-04T01:36:43.315Z,1.00
2023-04-04T01:39:32.113Z,1.00
2023-04-04T01:42:01.626Z,1.00
2023-04-04T01:44:29.525Z,0.90
2023-04-04T01:46:56.507Z,0.90
2023-04-04T01:49:24.054Z,0.90
2023-04-04T01:51:52.459Z,0.90
2023-04-04T01:54:20.541Z,0.90
2023-04-04T01:56:47.456Z,0.90
2023-04-04T01:59:14.518Z,0.90
2023-04-04T02:01:41.506Z,0.80
2023-04-04T02:04:11.192Z,0.80
2023-04-04T02:06:40.381Z,0.80
2023-04-04T02:09:07.239Z,0.80
2023-04-04T02:11:34.140Z,0.80
2023-04-04T02:14:01.179Z,0.80
2023-04-04T02:16:28.153Z,0.80
2023-04-04T02:18:55.334Z,0.80
2023-04-04T02:21:22.618Z,0.80
2023-04-04T02:23:49.938Z,0.80
2023-04-04T02:26:16.801Z,0.70
2023-04-04T02:28:43.612Z,0.70
2023-04-04T02:31:10.569Z,0.70
2023-04-04T02:33:37.746Z,0.70
2023-04-04T02:36:06.498Z,0.70
2023-04-04T02:38:34.165Z,0.70
2023-04-04T02:41:04.643Z,0.60
2023-04-04T02:43:31.385Z,0.50
2023-04-04T02:45:59.704Z,0.60
2023-04-04T02:48:28.820Z,0.60
2023-04-04T02:51:00.396Z,0.60
2023-04-04T02:53:28.141Z,0.60
2023-04-04T02:56:02.632Z,0.60
2023-04-04T02:58:31.445Z,0.50
2023-04-04T03:00:58.353Z,0.50
2023-04-04T03:03:29.869Z,0.50
2023-04-04T03:05:59.456Z,0.50
2023-04-04T03:08:28.014Z,0.40
2023-04-04T03:10:57.896Z,0.40
2023-04-04T03:13:24.696Z,0.40
2023-04-04T03:15:51.620Z,0.40
2023-04-04T03:18:19.338Z,0.40
2023-04-04T03:20:46.382Z,0.40
2023-04-04T03:23:13.129Z,0.40
2023-04-04T03:25:40.008Z,0.40
2023-04-04T03:28:11.287Z,0.40
2023-04-04T03:30:39.835Z,0.40
2023-04-04T03:33:10.098Z,0.40
2023-04-04T03:35:41.830Z,0.30
2023-04-04T03:38:09.828Z,0.30
2023-04-04T03:40:37.014Z,0.30
2023-04-04T03:43:10.377Z,0.30
2023-04-04T03:45:37.334Z,0.20
2023-04-04T03:48:04.940Z,0.20
2023-04-04T03:50:32.386Z,0.20
2023-04-04T03:53:00.052Z,0.20
2023-04-04T03:55:27.211Z,0.20
2023-04-04T03:57:58.932Z,0.20
2023-04-04T04:00:26.175Z,0.20
2023-04-04T04:02:53.126Z,0.10
2023-04-04T04:05:20.305Z,0.10
2023-04-04T04:07:47.105Z,0.10
2023-04-04T04:10:16.969Z,0.00
2023-04-04T04:12:43.907Z,0.00
2023-04-04T04:15:11.075Z,0.00
2023-04-04T04:17:41.985Z,0.00
2023-04-04T04:20:11.682Z,0.00
2023-04-04T04:22:48.885Z,-0.10
2023-04-04T04:25:17.012Z,-0.10
2023-04-04T04:27:56.439Z,-0.10
2023-04-04T04:30:24.467Z,-0.20
2023-04-04T04:32:51.265Z,-0.20
2023-04-04T04:35:21.952Z,-0.20
2023-04-04T04:37:49.024Z,-0.20
2023-04-04T04:40:17.059Z,-0.30
2023-04-04T04:42:51.998Z,-0.30
2023-04-04T04:45:22.345Z,-0.30
2023-04-04T04:47:56.106Z,-0.30
2023-04-04T04:50:23.046Z,-0.30
2023-04-04T04:52:54.088Z,-0.40
2023-04-04T04:55:20.957Z,-0.40
2023-04-04T04:57:59.071Z,-0.40
2023-04-04T05:00:27.781Z,-0.40
2023-04-04T05:03:00.386Z,-0.40
2023-04-04T05:05:53.616Z,-0.50
2023-04-04T05:08:20.496Z,-0.50
2023-04-04T05:11:10.258Z,-0.50
2023-04-04T05:13:37.600Z,-0.50
2023-04-04T05:16:05.656Z,-0.50
2023-04-04T05:18:34.148Z,-0.50
2023-04-04T05:21:01.485Z,-0.50
2023-04-04T05:23:29.545Z,-0.50
2023-04-04T05:25:56.628Z,-0.50
2023-04-04T05:28:26.534Z,-0.50
2023-04-04T05:30:58.531Z,-0.50
2023-04-04T05:33:27.139Z,-0.50
2023-04-04T05:36:07.929Z,-0.50
2023-04-04T05:38:41.102Z,-0.40
2023-04-04T05:41:08.502Z,-0.50
2023-04-04T05:43:36.448Z,-0.50
2023-04-04T05:46:08.845Z,-0.50
2023-04-04T05:48:41.004Z,-0.40
2023-04-04T05:51:07.861Z,-0.40
2023-04-04T05:53:50.565Z,-0.40
2023-04-04T05:56:22.500Z,-0.40
2023-04-04T05:58:49.404Z,-0.30
2023-04-04T06:01:18.438Z,-0.30
2023-04-04T06:03:46.544Z,-0.30
2023-04-04T06:06:21.243Z,-0.20
2023-04-04T06:08:53.496Z,-0.20
2023-04-04T06:11:23.970Z,-0.20
2023-04-04T06:13:55.068Z,-0.20
2023-04-04T06:16:22.546Z,-0.20
2023-04-04T06:18:49.466Z,-0.10
2023-04-04T06:21:16.817Z,-0.10
2023-04-04T06:23:43.621Z,-0.10
2023-04-04T06:26:10.712Z,0.00
2023-04-04T06:28:49.879Z,0.00
2023-04-04T06:31:42.945Z,0.00
2023-04-04T06:34:15.392Z,0.10
2023-04-04T06:36:52.692Z,0.10
2023-04-04T06:39:20.524Z,0.10
2023-04-04T06:41:48.663Z,0.20
2023-04-04T06:44:16.276Z,0.10
2023-04-04T06:46:43.206Z,0.20
2023-04-04T06:49:10.218Z,0.20
2023-04-04T06:51:37.368Z,0.20
2023-04-04T06:54:04.300Z,0.30
2023-04-04T06:56:31.367Z,0.30
2023-04-04T06:58:58.222Z,0.30
2023-04-04T07:01:25.006Z,0.40
2023-04-04T07:03:55.021Z,0.40
2023-04-04T07:06:25.905Z,0.40
2023-04-04T07:08:53.344Z,0.40
2023-04-04T07:11:20.257Z,0.50
2023-04-04T07:13:47.207Z,0.50
2023-04-04T07:16:13.994Z,0.60
2023-04-04T07:18:40.860Z,0.60
2023-04-04T07:21:07.678Z,0.70
2023-04-04T07:23:34.457Z,0.70
2023-04-04T07:26:01.535Z,0.80
2023-04-04T07:28:28.567Z,0.80
2023-04-04T07:30:58.825Z,0.90
2023-04-04T07:33:25.741Z,0.90
2023-04-04T07:35:53.266Z,1.00
2023-04-04T07:38:20.731Z,1.00
2023-04-04T07:40:50.655Z,1.00
2023-04-04T07:43:17.715Z,1.10
2023-04-04T07:45:44.706Z,1.20
2023-04-04T07:48:11.587Z,1.20
2023-04-04T07:50:38.656Z,1.30
2023-04-04T07:53:06.529Z,1.30
2023-04-04T07:55:33.311Z,1.30
2023-04-04T07:58:00.208Z,1.40
2023-04-04T08:00:27.052Z,1.50
2023-04-04T08:02:56.229Z,1.50
2023-04-04T08:05:23.793Z,1.50
2023-04-04T08:07:50.725Z,1.60
2023-04-04T08:10:17.840Z,1.60
2023-04-04T08:12:45.347Z,1.70
2023-04-04T08:15:12.410Z,1.80
2023-04-04T08:17:39.618Z,1.80
2023-04-04T08:20:07.056Z,1.90
2023-04-04T08:22:33.927Z,1.90
2023-04-04T08:25:00.965Z,2.00
2023-04-04T08:27:27.997Z,2.00
2023-04-04T08:29:54.748Z,2.10
2023-04-04T08:32:22.537Z,2.10
2023-04-04T08:34:49.785Z,2.20
2023-04-04T08:37:17.039Z,2.30
2023-04-04T08:39:44.170Z,2.30
2023-04-04T08:42:12.374Z,2.40
2023-04-04T08:44:41.821Z,2.40
2023-04-04T08:47:10.395Z,2.50
2023-04-04T08:49:44.264Z,2.50
2023-04-04T08:52:12.900Z,2.60
2023-04-04T08:54:40.843Z,2.80
2023-04-04T08:57:08.435Z,2.80
2023-04-04T08:59:36.001Z,2.90
2023-04-04T09:02:09.082Z,2.90
2023-04-04T09:04:36.407Z,2.90
2023-04-04T09:07:05.453Z,3.00
2023-04-04T09:09:33.537Z,3.00
2023-04-04T09:12:03.628Z,3.00
2023-04-04T09:14:31.879Z,3.00
2023-04-04T09:16:59.030Z,3.00
2023-04-04T09:19:26.692Z,3.10
2023-04-04T09:21:53.576Z,3.00
2023-04-04T09:24:20.568Z,3.00
2023-04-04T09:26:53.395Z,3.00
2023-04-04T09:29:23.459Z,2.90
2023-04-04T09:31:50.944Z,2.90
2023-04-04T09:34:19.253Z,2.90
2023-04-04T09:36:46.691Z,2.90
2023-04-04T09:39:16.626Z,2.90
2023-04-04T09:41:45.756Z,2.90
2023-04-04T09:44:13.433Z,2.90
2023-04-04T09:46:40.812Z,2.90
2023-04-04T09:49:13.349Z,2.80
2023-04-04T09:51:42.462Z,2.80
2023-04-04T09:54:29.064Z,2.70
2023-04-04T09:56:56.943Z,2.70
2023-04-04T09:59:24.690Z,2.70
2023-04-04T10:01:54.546Z,2.60
2023-04-04T10:04:21.686Z,2.60
2023-04-04T10:06:48.627Z,2.60
2023-04-04T10:09:16.230Z,2.50
2023-04-04T10:11:43.321Z,2.50
2023-04-04T10:14:10.419Z,2.50
2023-04-04T10:16:37.855Z,2.50
2023-04-04T10:19:08.981Z,2.60
2023-04-04T10:21:36.685Z,2.60
2023-04-04T10:24:09.161Z,2.70
2023-04-04T10:26:37.084Z,2.70
2023-04-04T10:29:05.691Z,2.70
2023-04-04T10:31:36.998Z,2.70
2023-04-04T10:34:09.787Z,2.80
2023-04-04T10:36:49.999Z,2.80
2023-04-04T10:39:27.536Z,2.90
2023-04-04T10:41:56.465Z,3.00
2023-04-04T10:44:36.853Z,3.00
2023-04-04T10:47:21.760Z,3.00
2023-04-04T10:49:50.496Z,3.00
2023-04-04T10:52:19.325Z,3.10
2023-04-04T10:54:47.818Z,3.10
2023-04-04T10:57:15.402Z,3.10
2023-04-04T11:00:11.373Z,3.20
2023-04-04T11:03:02.014Z,3.30
2023-04-04T11:05:59.996Z,3.40
2023-04-04T11:08:28.550Z,3.50
2023-04-04T11:10:57.316Z,3.60
2023-04-04T11:13:35.768Z,3.70
2023-04-04T11:16:09.739Z,3.80
2023-04-04T11:18:42.550Z,3.80
2023-04-04T11:21:19.814Z,3.90
2023-04-04T11:23:49.826Z,4.00
2023-04-04T11:26:35.680Z,4.10
2023-04-04T11:29:04.520Z,4.10
2023-04-04T11:31:47.302Z,4.10
2023-04-04T11:34:16.476Z,4.10
2023-04-04T11:36:49.062Z,4.10
2023-04-04T11:39:24.729Z,4.20
2023-04-04T11:42:03.492Z,4.30
2023-04-04T11:44:32.320Z,4.30
2023-04-04T11:47:09.229Z,4.30
2023-04-04T11:49:43.741Z,4.30
2023-04-04T11:52:16.538Z,4.40
2023-04-04T11:54:46.124Z,4.40
2023-04-04T11:57:17.956Z,4.50
2023-04-04T11:59:47.288Z,4.60
2023-04-04T12:02:17.012Z,4.70
2023-04-04T12:04:45.688Z,4.80
2023-04-04T12:07:16.403Z,4.90
2023-04-04T12:09:44.126Z,5.00
2023-04-04T12:12:16.303Z,5.20
2023-04-04T12:14:43.789Z,5.40
2023-04-04T12:17:11.214Z,5.70
2023-04-04T12:19:39.816Z,5.90
2023-04-04T12:22:10.154Z,6.10
2023-04-04T12:24:37.100Z,6.20
2023-04-04T12:27:04.942Z,6.30
2023-04-04T12:29:36.229Z,6.40
2023-04-04T12:32:04.505Z,6.50
2023-04-04T12:34:33.855Z,6.70
2023-04-04T12:37:02.523Z,6.80
2023-04-04T12:39:30.246Z,7.00
2023-04-04T12:42:02.374Z,7.10
2023-04-04T12:44:37.372Z,7.20
2023-04-04T12:47:10.044Z,7.40
2023-04-04T12:49:43.074Z,7.60
2023-04-04T12:52:28.147Z,7.70
2023-04-04T12:55:07.543Z,7.90
2023-04-04T12:57:38.201Z,8.00
2023-04-04T13:00:08.160Z,8.10
2023-04-04T13:02:36.860Z,8.20
2023-04-04T13:05:04.771Z,8.30
2023-04-04T13:07:39.291Z,8.50
2023-04-04T13:10:06.974Z,8.60
2023-04-04T13:13:30.974Z,8.80
2023-04-04T13:15:57.866Z,8.90
2023-04-04T13:18:26.438Z,9.20
2023-04-04T13:20:54.973Z,9.50
2023-04-04T13:23:22.787Z,9.70
2023-04-04T13:25:49.949Z,9.80
2023-04-04T13:28:17.115Z,9.80
2023-04-04T13:30:48.814Z,9.80
2023-04-04T13:33:17.055Z,9.90
2023-04-04T13:35:45.233Z,10.00
2023-04-04T13:38:12.804Z,10.10
2023-04-04T13:40:39.768Z,10.10
2023-04-04T13:43:06.900Z,10.20
2023-04-04T13:45:34.630Z,10.20
2023-04-04T13:48:02.200Z,10.20
2023-04-04T13:50:30.522Z,10.20
2023-04-04T13:52:57.473Z,10.10
2023-04-04T13:55:24.299Z,10.00
2023-04-04T13:57:51.360Z,9.90
2023-04-04T14:00:18.604Z,9.80
2023-04-04T14:02:45.552Z,9.80
2023-04-04T14:05:12.493Z,9.70
2023-04-04T14:07:39.372Z,9.60
2023-04-04T14:10:06.989Z,9.60
2023-04-04T14:12:34.232Z,9.70
2023-04-04T14:15:01.177Z,9.80
2023-04-04T14:17:28.073Z,10.00
2023-04-04T14:19:54.903Z,10.10
2023-04-04T14:22:22.085Z,10.30
2023-04-04T14:24:48.938Z,10.40
2023-04-04T14:27:15.786Z,10.50
2023-04-04T14:29:42.644Z,10.50
2023-04-04T14:32:11.063Z,10.40
2023-04-04T14:34:38.115Z,10.40
2023-04-04T14:37:05.276Z,10.20
2023-04-04T14:39:33.176Z,10.10
2023-04-04T14:42:00.481Z,10.00
2023-04-04T14:44:27.430Z,9.90
2023-04-04T14:46:54.565Z,9.90
2023-04-04T14:49:21.437Z,9.80
2023-04-04T14:51:48.420Z,9.70
2023-04-04T14:54:15.397Z,9.60
2023-04-04T14:56:43.031Z,9.50
2023-04-04T14:59:09.874Z,9.40
2023-04-04T15:01:37.322Z,9.30
2023-04-04T15:04:04.256Z,9.30
2023-04-04T15:06:36.152Z,9.30
2023-04-04T15:09:06.697Z,9.20
2023-04-04T15:11:35.299Z,9.30
2023-04-04T15:14:02.490Z,9.30
2023-04-04T15:16:33.274Z,9.30
2023-04-04T15:19:00.997Z,9.20
2023-04-04T15:21:28.929Z,9.20
2023-04-04T15:23:56.161Z,9.30
2023-04-04T15:26:23.342Z,9.30
2023-04-04T15:28:50.311Z,9.30
2023-04-04T15:31:17.506Z,9.30
2023-04-04T15:33:44.470Z,9.40
2023-04-04T15:36:11.358Z,9.50
2023-04-04T15:38:40.018Z,9.70
2023-04-04T15:41:09.691Z,9.80
2023-04-04T15:43:37.310Z,9.90
2023-04-04T15:46:05.110Z,10.10
2023-04-04T15:48:32.406Z,10.40
2023-04-04T15:51:02.925Z,10.60
2023-04-04T15:53:30.870Z,10.80
2023-04-04T15:56:04.603Z,10.90
2023-04-04T15:58:32.010Z,11.10
2023-04-04T16:01:00.188Z,11.30
2023-04-04T16:03:27.225Z,11.40
2023-04-04T16:05:54.100Z,11.60
2023-04-04T16:08:20.934Z,11.60
2023-04-04T16:10:47.704Z,11.60
2023-04-04T16:13:14.567Z,11.60
2023-04-04T16:15:41.817Z,11.50
2023-04-04T16:18:09.171Z,11.50
2023-04-04T16:20:36.180Z,11.40
2023-04-04T16:23:03.529Z,11.20
2023-04-04T16:25:30.501Z,11.00
2023-04-04T16:27:57.382Z,10.90
2023-04-04T16:30:24.231Z,10.70
2023-04-04T16:32:51.325Z,10.50
2023-04-04T16:35:18.187Z,10.40
2023-04-04T16:37:45.253Z,10.20
2023-04-04T16:40:14.015Z,10.20
2023-04-04T16:42:43.036Z,10.10
2023-04-04T16:45:10.939Z,10.10
2023-04-04T16:47:37.818Z,10.20
2023-04-04T16:50:06.018Z,10.30
2023-04-04T16:52:33.250Z,10.40
2023-04-04T16:55:00.248Z,10.40
2023-04-04T16:57:27.184Z,10.50
2023-04-04T16:59:53.979Z,10.50
2023-04-04T17:02:21.013Z,10.40
2023-04-04T17:04:47.989Z,10.30
2023-04-04T17:07:14.952Z,10.20
2023-04-04T17:09:42.275Z,10.10
2023-04-04T17:12:09.372Z,9.80
2023-04-04T17:14:36.874Z,9.90
2023-04-04T17:17:05.365Z,9.90
2023-04-04T17:19:34.908Z,9.90
2023-04-04T17:22:03.193Z,9.80
2023-04-04T17:24:30.379Z,9.70
2023-04-04T17:27:00.463Z,9.60
2023-04-04T17:29:27.378Z,9.50
2023-04-04T17:31:57.689Z,9.40
2023-04-04T17:34:24.975Z,9.30
2023-04-04T17:36:53.349Z,9.20
2023-04-04T17:39:20.272Z,9.10
2023-04-04T17:41:49.838Z,8.90
2023-04-04T17:44:18.227Z,8.80
2023-04-04T17:46:46.056Z,8.70
2023-04-04T17:49:16.081Z,8.50
2023-04-04T17:51:42.996Z,8.40
2023-04-04T17:54:09.897Z,8.20
2023-04-04T17:56:37.299Z,8.10
2023-04-04T17:59:04.239Z,8.00
2023-04-04T18:01:31.305Z,7.90
2023-04-04T18:03:58.285Z,7.80
2023-04-04T18:06:25.126Z,7.70
2023-04-04T18:08:51.975Z,7.50
2023-04-04T18:11:19.019Z,7.50
2023-04-04T18:13:46.149Z,7.40
2023-04-04T18:16:13.254Z,7.30
2023-04-04T18:18:40.623Z,7.20
2023-04-04T18:21:08.321Z,7.10
2023-04-04T18:23:35.459Z,7.10
2023-04-04T18:26:02.368Z,7.10
2023-04-04T18:28:29.346Z,7.00
2023-04-04T18:30:56.208Z,7.00
2023-04-04T18:33:25.018Z,6.90
2023-04-04T18:35:51.879Z,7.00
2023-04-04T18:38:18.993Z,6.80
2023-04-04T18:40:46.541Z,6.80
2023-04-04T18:43:13.707Z,6.80
2023-04-04T18:45:41.420Z,6.90
2023-04-04T18:48:08.868Z,6.70
2023-04-04T18:50:35.930Z,6.70
2023-04-04T18:53:02.799Z,6.70
2023-04-04T18:55:29.645Z,6.70
2023-04-04T18:57:57.494Z,6.70
2023-04-04T19:00:24.932Z,6.70
2023-04-04T19:02:52.054Z,6.60
2023-04-04T19:05:24.040Z,6.60
2023-04-04T19:07:56.149Z,6.60
2023-04-04T19:10:23.221Z,6.60
2023-04-04T19:12:49.996Z,6.50
2023-04-04T19:15:17.048Z,6.50
2023-04-04T19:17:43.904Z,6.50
2023-04-04T19:20:11.752Z,6.50
2023-04-04T19:22:38.569Z,6.50
2023-04-04T19:25:05.666Z,6.50
2023-04-04T19:27:32.416Z,6.50
2023-04-04T19:29:59.381Z,6.50
2023-04-04T19:32:28.421Z,6.50
2023-04-04T19:34:56.417Z,6.40
2023-04-04T19:37:24.496Z,6.40
2023-04-04T19:39:51.375Z,6.40
2023-04-04T19:42:25.842Z,6.40
2023-04-04T19:44:52.669Z,6.30
2023-04-04T19:47:20.517Z,6.30
2023-04-04T19:49:50.959Z,6.30
2023-04-04T19:52:23.418Z,6.30
2023-04-04T19:54:50.348Z,6.30
2023-04-04T19:57:20.430Z,6.30
2023-04-04T20:00:04.114Z,6.30
2023-04-04T20:02:33.627Z,6.30
2023-04-04T20:05:01.192Z,6.20
2023-04-04T20:07:28.789Z,6.20
2023-04-04T20:09:56.141Z,6.10
2023-04-04T20:12:24.494Z,6.10
2023-04-04T20:14:55.341Z,6.10
2023-04-04T20:17:22.545Z,6.10
2023-04-04T20:19:49.318Z,6.10
2023-04-04T20:22:16.913Z,6.10
2023-04-04T20:24:46.719Z,6.00
2023-04-04T20:27:23.533Z,6.00
2023-04-04T20:29:53.313Z,6.00
2023-04-04T20:32:20.316Z,6.00
2023-04-04T20:34:49.692Z,5.90
2023-04-04T20:37:24.808Z,5.90
2023-04-04T20:39:57.828Z,5.90
2023-04-04T20:42:32.273Z,5.90
2023-04-04T20:45:28.138Z,5.80
2023-04-04T20:47:57.658Z,5.80
2023-04-04T20:50:26.948Z,5.70
2023-04-04T20:52:59.244Z,5.60
2023-04-04T20:55:28.504Z,5.60
2023-04-04T20:58:01.240Z,5.60
2023-04-04T21:00:36.917Z,5.50
2023-04-04T21:03:11.204Z,5.30
2023-04-04T21:05:39.952Z,5.40
2023-04-04T21:08:30.078Z,5.30
2023-04-04T21:10:57.737Z,5.30
2023-04-04T21:13:30.587Z,5.10
2023-04-04T21:16:01.117Z,5.20
2023-04-04T21:18:30.878Z,5.20
2023-04-04T21:20:57.626Z,5.10
2023-04-04T21:23:30.573Z,5.10
2023-04-04T21:25:59.902Z,5.00
2023-04-04T21:28:45.227Z,5.00
2023-04-04T21:31:15.637Z,5.00
2023-04-04T21:33:44.229Z,4.90
2023-04-04T21:36:28.734Z,4.90
2023-04-04T21:38:58.134Z,4.90
2023-04-04T21:41:33.744Z,4.80
2023-04-04T21:44:06.235Z,4.80
2023-04-04T21:46:36.063Z,4.80
2023-04-04T21:49:03.480Z,4.70
2023-04-04T21:51:30.695Z,4.70
2023-04-04T21:53:57.642Z,4.70
2023-04-04T21:56:27.430Z,4.60
2023-04-04T21:58:55.447Z,4.60
2023-04-04T22:01:22.489Z,4.60
2023-04-04T22:03:49.359Z,4.50
2023-04-04T22:06:16.427Z,4.50
2023-04-04T22:08:43.328Z,4.40
2023-04-04T22:11:13.606Z,4.40
2023-04-04T22:13:42.921Z,4.40
2023-04-04T22:16:10.592Z,4.40
2023-04-04T22:18:42.767Z,4.40
2023-04-04T22:21:10.706Z,4.40
2023-04-04T22:23:37.621Z,4.30
2023-04-04T22:26:06.120Z,4.30
2023-04-04T22:28:37.590Z,4.30
2023-04-04T22:31:08.241Z,4.30
2023-04-04T22:33:35.347Z,4.30
2023-04-04T22:36:02.864Z,4.30
2023-04-04T22:38:29.808Z,4.20
2023-04-04T22:40:58.068Z,4.30
2023-04-04T22:43:28.548Z,4.20
2023-04-04T22:45:55.602Z,4.20
2023-04-04T22:48:25.483Z,4.20
2023-04-04T22:50:55.901Z,4.20
2023-04-04T22:53:26.146Z,4.20
2023-04-04T22:55:54.088Z,4.20
2023-04-04T22:58:21.780Z,4.20
2023-04-04T23:00:48.752Z,4.20
2023-04-04T23:03:15.954Z,4.10
2023-04-04T23:05:42.960Z,4.10
2023-04-04T23:08:09.990Z,4.10
2023-04-04T23:10:36.967Z,4.10
2023-04-04T23:13:04.139Z,4.10
2023-04-04T23:15:32.976Z,4.10
2023-04-04T23:17:59.761Z,4.00
2023-04-04T23:20:27.928Z,4.00
2023-04-04T23:22:54.777Z,4.00
2023-04-04T23:25:21.731Z,3.90
2023-04-04T23:27:48.522Z,3.90
2023-04-04T23:30:15.402Z,3.90
2023-04-04T23:32:42.269Z,3.80
2023-04-04T23:35:09.702Z,3.80
2023-04-04T23:37:36.763Z,3.80
2023-04-04T23:40:05.287Z,3.70
2023-04-04T23:42:32.191Z,3.70
2023-04-04T23:45:00.949Z,3.70
2023-04-04T23:47:28.192Z,3.60
2023-04-04T23:49:55.600Z,3.50
2023-04-04T23:52:22.495Z,3.50
2023-04-04T23:54:49.284Z,3.50
2023-04-04T23:57:17.029Z,3.50
2023-04-04T23:59:43.831Z,3.40
